createdAt,value
2018-12-04T00:01:14.010Z,99.90
2018-12-04T00:03:43.271Z,99.90
2018-12-04T00:06:12.533Z,98.00
2018-12-04T00:08:41.796Z,99.90
2018-12-04T00:11:11.066Z,99.90
2018-12-04T00:13:40.359Z,99.90
2018-12-04T00:16:09.601Z,99.90
2018-12-04T00:18:38.867Z,99.90
2018-12-04T00:21:08.127Z,99.90
2018-12-04T00:23:37.381Z,99.90
2018-12-04T00:26:06.753Z,99.90
2018-12-04T00:28:36.031Z,99.90
2018-12-04T00:31:05.331Z,99.90
2018-12-04T00:33:34.585Z,99.90
2018-12-04T00:36:04.007Z,99.90
2018-12-04T00:38:33.282Z,99.90
2018-12-04T00:41:02.582Z,99.90
2018-12-04T00:43:31.846Z,99.90
2018-12-04T00:46:01.118Z,99.90
2018-12-04T00:48:30.369Z,97.90
2018-12-04T00:50:59.725Z,96.70
2018-12-04T00:53:29.030Z,95.90
2018-12-04T00:55:58.378Z,95.20
2018-12-04T00:58:27.673Z,97.60
2018-12-04T01:00:56.932Z,94.70
2018-12-04T01:03:26.170Z,92.20
2018-12-04T01:05:55.441Z,88.50
2018-12-04T01:08:24.683Z,87.40
2018-12-04T01:10:53.946Z,79.10
2018-12-04T01:13:23.204Z,81.10
2018-12-04T01:15:52.451Z,72.00
2018-12-04T01:18:21.734Z,74.90
2018-12-04T01:20:51.004Z,69.80
2018-12-04T01:23:20.355Z,58.60
2018-12-04T01:25:49.578Z,65.80
2018-12-04T01:28:18.837Z,59.10
2018-12-04T01:30:48.085Z,63.30
2018-12-04T01:33:17.374Z,61.90
2018-12-04T01:35:46.612Z,61.90
2018-12-04T01:38:15.845Z,61.00
2018-12-04T01:40:45.232Z,68.20
2018-12-04T01:43:14.508Z,69.20
2018-12-04T01:45:43.749Z,82.10
2018-12-04T01:48:13.004Z,73.40
2018-12-04T01:50:42.257Z,66.00
2018-12-04T01:53:11.513Z,78.20
2018-12-04T01:55:40.745Z,84.50
2018-12-04T01:58:09.989Z,81.70
2018-12-04T02:00:39.370Z,81.10
2018-12-04T02:03:08.620Z,73.20
2018-12-04T02:05:37.870Z,75.30
2018-12-04T02:08:07.128Z,77.20
2018-12-04T02:10:36.371Z,70.20
2018-12-04T02:13:05.634Z,68.80
2018-12-04T02:15:35.101Z,78.70
2018-12-04T02:18:04.417Z,75.70
2018-12-04T02:20:33.685Z,69.90
2018-12-04T02:23:02.945Z,74.20
2018-12-04T02:25:32.209Z,74.30
2018-12-04T02:28:01.459Z,79.30
2018-12-04T02:30:30.734Z,83.80
2018-12-04T02:32:59.997Z,70.00
2018-12-04T02:35:29.289Z,73.30
2018-12-04T02:37:58.566Z,65.70
2018-12-04T02:40:27.818Z,63.50
2018-12-04T02:42:57.074Z,66.70
2018-12-04T02:45:26.344Z,63.00
2018-12-04T02:47:55.570Z,59.20
2018-12-04T02:50:24.892Z,61.60
2018-12-04T02:52:54.141Z,68.40
2018-12-04T02:55:23.401Z,67.50
2018-12-04T02:57:52.651Z,58.40
2018-12-04T03:00:21.972Z,69.30
2018-12-04T03:02:51.225Z,58.30
2018-12-04T03:05:20.459Z,49.30
2018-12-04T03:07:49.713Z,60.00
2018-12-04T03:10:18.957Z,68.40
2018-12-04T03:12:48.263Z,51.80
2018-12-04T03:15:17.512Z,42.80
2018-12-04T03:17:46.847Z,37.50
2018-12-04T03:20:16.085Z,23.00
2018-12-04T03:22:45.336Z,14.70
2018-12-04T03:25:14.629Z,6.40
2018-12-04T03:27:43.914Z,1.00
2018-12-04T03:30:13.353Z,1.00
2018-12-04T03:32:42.608Z,1.00
2018-12-04T03:35:11.865Z,1.00
2018-12-04T03:37:41.118Z,5.10
2018-12-04T03:40:10.428Z,10.50
2018-12-04T03:42:39.674Z,11.90
2018-12-04T03:45:09.081Z,8.70
2018-12-04T03:47:38.342Z,1.00
2018-12-04T03:50:07.747Z,1.00
2018-12-04T03:52:37.003Z,1.00
2018-12-04T03:55:06.488Z,1.00
2018-12-04T03:57:35.738Z,1.00
2018-12-04T04:00:05.961Z,1.00
2018-12-04T04:02:35.212Z,13.70
2018-12-04T04:05:04.950Z,16.20
2018-12-04T04:07:34.239Z,6.80
2018-12-04T04:10:04.247Z,6.20
2018-12-04T04:12:33.473Z,6.20
2018-12-04T04:15:02.713Z,4.10
2018-12-04T04:17:31.978Z,8.90
2018-12-04T04:20:01.272Z,18.40
2018-12-04T04:22:30.543Z,6.20
2018-12-04T04:24:59.818Z,1.00
2018-12-04T04:27:29.088Z,6.70
2018-12-04T04:29:58.333Z,1.00
2018-12-04T04:32:27.593Z,15.20
2018-12-04T04:34:56.931Z,19.70
2018-12-04T04:37:26.191Z,20.20
2018-12-04T04:39:55.453Z,25.80
2018-12-04T04:42:24.713Z,55.30
2018-12-04T04:44:53.947Z,72.60
2018-12-04T04:47:23.267Z,74.60
2018-12-04T04:49:52.501Z,87.60
2018-12-04T04:52:21.767Z,85.90
2018-12-04T04:54:51.049Z,88.40
2018-12-04T04:57:20.553Z,75.30
2018-12-04T04:59:49.811Z,67.70
2018-12-04T05:02:19.117Z,77.10
2018-12-04T05:04:48.479Z,73.40
2018-12-04T05:07:17.756Z,62.20
2018-12-04T05:09:46.978Z,62.80
2018-12-04T05:12:16.242Z,64.30
2018-12-04T05:14:45.562Z,56.20
2018-12-04T05:17:14.869Z,63.70
2018-12-04T05:19:44.146Z,61.80
2018-12-04T05:22:13.444Z,38.60
2018-12-04T05:24:42.724Z,57.30
2018-12-04T05:27:12.045Z,58.50
2018-12-04T05:29:41.313Z,53.80
2018-12-04T05:32:10.583Z,69.90
2018-12-04T05:34:39.829Z,83.50
2018-12-04T05:37:09.102Z,84.10
2018-12-04T05:39:38.357Z,74.60
2018-12-04T05:42:07.649Z,90.30
2018-12-04T05:44:36.908Z,95.20
2018-12-04T05:47:20.273Z,87.40
2018-12-04T05:49:49.629Z,66.40
2018-12-04T05:52:18.866Z,52.70
2018-12-04T05:54:48.151Z,49.20
2018-12-04T05:57:17.477Z,28.30
2018-12-04T05:59:46.801Z,41.80
2018-12-04T06:02:16.038Z,21.80
2018-12-04T06:04:45.565Z,26.30
2018-12-04T06:07:14.807Z,22.50
2018-12-04T06:09:44.151Z,11.20
2018-12-04T06:12:13.398Z,31.60
2018-12-04T06:14:42.670Z,39.00
2018-12-04T06:17:11.921Z,37.60
2018-12-04T06:19:41.161Z,27.80
2018-12-04T06:22:10.481Z,21.60
2018-12-04T06:24:39.737Z,26.50
2018-12-04T06:27:09.109Z,39.30
2018-12-04T06:29:38.349Z,48.20
2018-12-04T06:32:07.609Z,34.00
2018-12-04T06:34:36.938Z,34.00
2018-12-04T06:37:06.214Z,46.10
2018-12-04T06:39:35.485Z,21.00
2018-12-04T06:42:04.810Z,16.00
2018-12-04T06:44:35.247Z,48.70
2018-12-04T06:47:04.682Z,47.30
2018-12-04T06:49:33.929Z,42.50
2018-12-04T06:52:03.195Z,49.80
2018-12-04T06:54:32.418Z,44.30
2018-12-04T06:57:01.664Z,40.80
2018-12-04T06:59:31.044Z,26.60
2018-12-04T07:02:00.307Z,30.00
2018-12-04T07:04:29.606Z,31.40
2018-12-04T07:06:58.840Z,27.40
2018-12-04T07:09:28.093Z,26.00
2018-12-04T07:12:02.341Z,21.20
2018-12-04T07:14:28.635Z,26.50
2018-12-04T07:16:57.895Z,22.80
2018-12-04T07:19:27.304Z,26.00
2018-12-04T07:21:56.505Z,23.30
2018-12-04T07:24:25.762Z,1.00
2018-12-04T07:26:55.003Z,10.40
2018-12-04T07:29:24.307Z,6.00
2018-12-04T07:31:53.517Z,5.90
2018-12-04T07:34:22.756Z,3.30
2018-12-04T07:36:51.972Z,1.00
2018-12-04T07:39:21.227Z,6.70
2018-12-04T07:41:50.449Z,6.00
2018-12-04T07:44:19.687Z,6.00
2018-12-04T07:46:48.901Z,5.70
2018-12-04T07:49:18.197Z,15.40
2018-12-04T07:51:47.492Z,10.70
2018-12-04T07:54:16.724Z,16.40
2018-12-04T07:56:45.985Z,17.60
2018-12-04T07:59:15.278Z,16.20
2018-12-04T08:01:44.497Z,15.00
2018-12-04T08:04:13.825Z,15.50
2018-12-04T08:06:43.129Z,20.50
2018-12-04T08:09:12.369Z,16.00
2018-12-04T08:11:41.609Z,4.30
2018-12-04T08:14:10.875Z,10.70
2018-12-04T08:16:40.122Z,8.30
2018-12-04T08:19:09.375Z,6.30
2018-12-04T08:21:38.593Z,1.00
2018-12-04T08:24:07.805Z,1.00
2018-12-04T08:26:37.721Z,5.30
2018-12-04T08:29:06.952Z,3.20
2018-12-04T08:31:36.204Z,1.20
2018-12-04T08:34:05.430Z,1.00
2018-12-04T08:36:34.747Z,2.60
2018-12-04T08:39:12.843Z,13.40
2018-12-04T08:41:38.726Z,17.40
2018-12-04T08:44:07.986Z,1.00
2018-12-04T08:46:37.205Z,1.00
2018-12-04T08:49:06.606Z,1.00
2018-12-04T08:51:35.869Z,1.00
2018-12-04T08:54:05.137Z,1.00
2018-12-04T08:56:34.393Z,1.00
2018-12-04T08:59:03.670Z,1.00
2018-12-04T09:01:32.906Z,1.00
2018-12-04T09:04:02.138Z,1.00
2018-12-04T09:06:36.435Z,1.00
2018-12-04T09:09:09.901Z,1.00
2018-12-04T09:11:39.130Z,1.00
2018-12-04T09:14:08.358Z,1.00
2018-12-04T09:16:37.601Z,1.00
2018-12-04T09:19:06.838Z,1.00
2018-12-04T09:21:36.171Z,1.00
2018-12-04T09:24:05.571Z,1.00
2018-12-04T09:26:35.077Z,1.00
2018-12-04T09:29:04.578Z,1.00
2018-12-04T09:31:34.191Z,1.00
2018-12-04T09:34:03.490Z,1.00
2018-12-04T09:36:32.814Z,1.00
2018-12-04T09:39:02.097Z,1.00
2018-12-04T09:41:31.323Z,2.00
2018-12-04T09:44:00.580Z,1.00
2018-12-04T09:46:29.885Z,1.00
2018-12-04T09:48:59.159Z,1.00
2018-12-04T09:51:28.501Z,1.00
2018-12-04T09:53:57.735Z,1.00
2018-12-04T09:56:26.969Z,1.00
2018-12-04T09:58:56.299Z,1.00
2018-12-04T10:01:25.543Z,1.00
2018-12-04T10:03:54.782Z,1.00
2018-12-04T10:06:24.137Z,1.00
2018-12-04T10:08:53.390Z,1.00
2018-12-04T10:11:22.665Z,1.00
2018-12-04T10:13:51.907Z,1.00
2018-12-04T10:16:21.158Z,1.00
2018-12-04T10:18:50.401Z,1.00
2018-12-04T10:21:19.675Z,1.00
2018-12-04T10:23:48.928Z,1.00
2018-12-04T10:26:18.169Z,1.00
2018-12-04T10:28:47.425Z,99.90
2018-12-04T10:31:16.662Z,99.90
2018-12-04T10:33:45.922Z,99.90
2018-12-04T10:36:15.159Z,99.90
2018-12-04T10:38:44.412Z,99.90
2018-12-04T10:41:13.912Z,99.90
2018-12-04T10:43:43.180Z,99.90
2018-12-04T10:46:12.422Z,13.80
2018-12-04T10:48:41.738Z,1.00
2018-12-04T10:51:10.982Z,1.00
2018-12-04T10:53:40.234Z,1.00
2018-12-04T10:56:09.590Z,1.00
2018-12-04T10:58:38.858Z,1.00
2018-12-04T11:01:13.318Z,1.00
2018-12-04T11:03:42.555Z,1.00
2018-12-04T11:06:11.906Z,99.90
2018-12-04T11:08:41.142Z,1.00
2018-12-04T11:11:10.381Z,69.40
2018-12-04T11:13:39.802Z,99.90
2018-12-04T11:16:09.045Z,99.90
2018-12-04T11:18:38.297Z,94.70
2018-12-04T11:21:07.557Z,1.00
2018-12-04T11:23:36.794Z,1.00
2018-12-04T11:26:06.050Z,1.00
2018-12-04T11:28:35.379Z,1.00
2018-12-04T11:31:04.767Z,1.00
2018-12-04T11:33:34.095Z,1.00
2018-12-04T11:36:03.362Z,1.00
2018-12-04T11:38:32.599Z,99.90
2018-12-04T11:41:01.951Z,99.90
2018-12-04T11:43:31.301Z,99.90
2018-12-04T11:46:00.591Z,99.90
2018-12-04T11:48:29.878Z,99.90
2018-12-04T11:51:00.354Z,99.90
2018-12-04T11:53:29.849Z,59.20
2018-12-04T11:55:59.120Z,99.90
2018-12-04T11:58:28.529Z,99.90
2018-12-04T12:00:57.945Z,99.90
2018-12-04T12:03:27.228Z,94.10
2018-12-04T12:05:56.482Z,1.00
2018-12-04T12:08:25.726Z,1.00
2018-12-04T12:10:54.994Z,1.00
2018-12-04T12:13:24.246Z,99.90
2018-12-04T12:15:53.549Z,99.90
2018-12-04T12:18:22.790Z,99.90
2018-12-04T12:20:52.137Z,99.90
2018-12-04T12:23:21.406Z,99.90
2018-12-04T12:25:50.669Z,1.00
2018-12-04T12:28:19.968Z,1.00
2018-12-04T12:30:49.207Z,1.00
2018-12-04T12:33:18.465Z,99.90
2018-12-04T12:35:47.722Z,1.00
2018-12-04T12:38:16.979Z,1.00
2018-12-04T12:40:46.201Z,1.00
2018-12-04T12:43:15.430Z,1.00
2018-12-04T12:45:44.681Z,1.00
2018-12-04T12:48:14.069Z,1.00
2018-12-04T12:50:43.352Z,99.90
2018-12-04T12:53:12.678Z,99.90
2018-12-04T12:55:41.958Z,99.90
2018-12-04T12:58:11.352Z,99.90
2018-12-04T13:00:40.642Z,54.20
2018-12-04T13:03:09.898Z,99.90
2018-12-04T13:05:39.236Z,99.90
2018-12-04T13:08:08.616Z,1.00
2018-12-04T13:10:37.862Z,1.00
2018-12-04T13:13:07.136Z,99.90
2018-12-04T13:15:36.369Z,1.00
2018-12-04T13:18:05.664Z,1.00
2018-12-04T13:20:35.061Z,99.90
2018-12-04T13:23:04.418Z,99.90
2018-12-04T13:25:33.796Z,1.00
2018-12-04T13:28:03.094Z,99.90
2018-12-04T13:30:32.428Z,99.90
2018-12-04T13:33:01.720Z,99.90
2018-12-04T13:35:31.038Z,99.90
2018-12-04T13:38:00.387Z,99.90
2018-12-04T13:40:29.730Z,99.90
2018-12-04T13:42:59.122Z,99.90
2018-12-04T13:45:28.461Z,1.00
2018-12-04T13:48:00.802Z,31.00
2018-12-04T13:50:29.068Z,99.90
2018-12-04T13:52:58.330Z,52.00
2018-12-04T13:55:27.600Z,99.90
2018-12-04T13:57:56.857Z,99.90
2018-12-04T14:00:26.197Z,99.90
2018-12-04T14:02:55.522Z,1.00
2018-12-04T14:05:24.785Z,1.00
2018-12-04T14:07:54.164Z,1.00
2018-12-04T14:10:23.421Z,1.00
2018-12-04T14:12:52.783Z,1.00
2018-12-04T14:15:22.115Z,1.00
2018-12-04T14:17:51.445Z,1.00
2018-12-04T14:20:20.795Z,1.00
2018-12-04T14:22:50.105Z,1.00
2018-12-04T14:25:19.424Z,1.00
2018-12-04T14:27:49.120Z,1.00
2018-12-04T14:30:18.782Z,1.00
2018-12-04T14:32:48.064Z,1.00
2018-12-04T14:35:17.382Z,1.00
2018-12-04T14:37:46.702Z,11.60
2018-12-04T14:40:15.989Z,1.00
2018-12-04T14:42:45.316Z,1.00
2018-12-04T14:45:14.652Z,1.00
2018-12-04T14:47:44.079Z,5.90
2018-12-04T14:50:13.367Z,1.00
2018-12-04T14:52:42.665Z,1.40
2018-12-04T14:55:12.005Z,16.40
2018-12-04T14:57:41.438Z,19.30
2018-12-04T15:00:11.700Z,22.80
2018-12-04T15:02:41.058Z,24.10
2018-12-04T15:05:10.446Z,21.20
2018-12-04T15:07:39.725Z,8.30
2018-12-04T15:10:10.616Z,10.00
2018-12-04T15:12:39.964Z,5.80
2018-12-04T15:15:09.425Z,7.70
2018-12-04T15:17:38.818Z,2.20
2018-12-04T15:20:08.550Z,15.10
2018-12-04T15:22:37.836Z,13.60
2018-12-04T15:25:07.416Z,1.00
2018-12-04T15:27:36.738Z,1.00
2018-12-04T15:30:06.380Z,1.00
2018-12-04T15:32:35.679Z,1.00
2018-12-04T15:35:05.698Z,1.00
2018-12-04T15:37:35.049Z,1.00
2018-12-04T15:40:04.950Z,1.00
2018-12-04T15:42:34.271Z,1.00
2018-12-04T15:45:04.603Z,1.00
2018-12-04T15:47:34.048Z,1.00
2018-12-04T15:50:03.515Z,1.00
2018-12-04T15:52:32.850Z,1.00
2018-12-04T15:55:02.167Z,1.00
2018-12-04T15:57:31.645Z,1.00
2018-12-04T16:00:00.914Z,1.00
2018-12-04T16:02:30.190Z,1.00
2018-12-04T16:04:59.466Z,1.00
2018-12-04T16:07:28.819Z,1.00
2018-12-04T16:09:58.081Z,1.00
2018-12-04T16:12:27.310Z,1.00
2018-12-04T16:14:56.553Z,1.00
2018-12-04T16:17:25.902Z,1.00
2018-12-04T16:19:55.170Z,1.00
2018-12-04T16:22:24.452Z,1.00
2018-12-04T16:24:53.696Z,1.00
2018-12-04T16:27:22.978Z,1.00
2018-12-04T16:29:52.225Z,1.00
2018-12-04T16:32:21.517Z,1.00
2018-12-04T16:34:50.782Z,1.00
2018-12-04T16:37:20.025Z,1.00
2018-12-04T16:39:49.434Z,1.00
2018-12-04T16:42:18.718Z,1.00
2018-12-04T16:44:47.961Z,1.00
2018-12-04T16:47:17.263Z,1.00
2018-12-04T16:49:46.612Z,1.00
2018-12-04T16:52:15.875Z,1.00
2018-12-04T16:54:45.117Z,1.00
2018-12-04T16:57:14.353Z,1.00
2018-12-04T16:59:43.674Z,1.00
2018-12-04T17:02:12.970Z,6.40
2018-12-04T17:04:42.215Z,12.80
2018-12-04T17:07:11.462Z,11.50
2018-12-04T17:09:40.731Z,10.90
2018-12-04T17:12:10.067Z,18.10
2018-12-04T17:14:39.431Z,25.40
2018-12-04T17:17:08.969Z,25.60
2018-12-04T17:19:38.255Z,18.30
2018-12-04T17:22:07.713Z,1.00
2018-12-04T17:24:37.045Z,1.00
2018-12-04T17:27:06.350Z,1.10
2018-12-04T17:29:35.638Z,5.70
2018-12-04T17:32:04.958Z,4.90
2018-12-04T17:34:34.273Z,5.80
2018-12-04T17:37:03.602Z,18.30
2018-12-04T17:39:33.595Z,23.70
2018-12-04T17:42:02.875Z,25.60
2018-12-04T17:44:32.215Z,25.30
2018-12-04T17:47:01.576Z,27.90
2018-12-04T17:49:30.825Z,29.00
2018-12-04T17:52:00.841Z,29.60
2018-12-04T17:54:30.091Z,33.80
2018-12-04T17:56:59.462Z,25.40
2018-12-04T17:59:28.901Z,23.70
2018-12-04T18:01:58.172Z,21.00
2018-12-04T18:04:27.417Z,24.80
2018-12-04T18:06:56.658Z,22.10
2018-12-04T18:09:25.910Z,25.20
2018-12-04T18:11:55.143Z,25.70
2018-12-04T18:14:24.456Z,26.90
2018-12-04T18:16:53.757Z,15.80
2018-12-04T18:19:23.064Z,15.80
2018-12-04T18:21:52.317Z,15.80
2018-12-04T18:24:21.625Z,20.20
2018-12-04T18:26:50.988Z,15.60
2018-12-04T18:29:20.246Z,15.10
2018-12-04T18:31:49.599Z,11.40
2018-12-04T18:34:18.935Z,18.50
2018-12-04T18:36:48.286Z,23.10
2018-12-04T18:39:17.569Z,31.40
2018-12-04T18:41:46.955Z,30.70
2018-12-04T18:44:16.239Z,15.80
2018-12-04T18:46:45.484Z,2.90
2018-12-04T18:49:14.810Z,1.00
2018-12-04T18:51:44.521Z,8.10
2018-12-04T18:54:14.129Z,15.60
2018-12-04T18:56:43.418Z,16.50
2018-12-04T18:59:12.721Z,25.30
2018-12-04T19:01:41.964Z,30.30
2018-12-04T19:04:11.243Z,29.60
2018-12-04T19:06:40.725Z,37.00
2018-12-04T19:09:10.153Z,19.80
2018-12-04T19:11:39.479Z,19.60
2018-12-04T19:14:09.208Z,14.80
2018-12-04T19:16:38.692Z,15.50
2018-12-04T19:19:08.068Z,3.90
2018-12-04T19:21:37.360Z,13.00
2018-12-04T19:24:06.759Z,14.90
2018-12-04T19:26:36.038Z,18.90
2018-12-04T19:29:05.390Z,23.70
2018-12-04T19:31:34.711Z,20.10
2018-12-04T19:34:04.262Z,29.50
2018-12-04T19:36:33.583Z,28.80
2018-12-04T19:39:03.219Z,13.10
2018-12-04T19:42:30.515Z,15.00
2018-12-04T19:44:59.838Z,26.70
2018-12-04T19:47:29.160Z,32.80
2018-12-04T19:49:58.551Z,30.10
2018-12-04T19:52:27.855Z,30.00
2018-12-04T19:54:57.219Z,25.40
2018-12-04T19:57:26.556Z,38.60
2018-12-04T19:59:55.961Z,22.50
2018-12-04T20:02:25.262Z,25.20
2018-12-04T20:04:54.539Z,27.80
2018-12-04T20:07:23.891Z,24.90
2018-12-04T20:09:53.220Z,22.80
2018-12-04T20:12:22.590Z,19.40
2018-12-04T20:14:52.024Z,23.40
2018-12-04T20:17:21.376Z,18.80
2018-12-04T20:19:50.734Z,1.00
2018-12-04T20:22:20.026Z,1.00
2018-12-04T20:24:49.322Z,1.00
2018-12-04T20:27:18.606Z,5.10
2018-12-04T20:29:47.963Z,4.30
2018-12-04T20:32:17.264Z,15.00
2018-12-04T20:34:46.625Z,12.10
2018-12-04T20:37:15.929Z,4.10
2018-12-04T20:39:45.233Z,17.70
2018-12-04T20:42:14.555Z,28.40
2018-12-04T20:44:43.886Z,29.30
2018-12-04T20:47:13.229Z,30.90
2018-12-04T20:49:42.526Z,24.90
2018-12-04T20:52:11.907Z,30.50
2018-12-04T20:54:41.295Z,25.00
2018-12-04T20:57:10.680Z,16.90
2018-12-04T20:59:39.986Z,32.30
2018-12-04T21:02:09.369Z,18.70
2018-12-04T21:04:38.750Z,21.00
2018-12-04T21:07:08.201Z,26.20
2018-12-04T21:09:37.521Z,27.30
2018-12-04T21:12:06.869Z,42.20
2018-12-04T21:14:36.167Z,46.30
2018-12-04T21:17:05.472Z,47.20
2018-12-04T21:19:34.759Z,38.60
2018-12-04T21:22:04.136Z,35.40
2018-12-04T21:24:33.421Z,30.00
2018-12-04T21:27:02.781Z,35.30
2018-12-04T21:29:37.215Z,33.00
2018-12-04T21:32:12.010Z,35.30
2018-12-04T21:34:48.457Z,41.50
2018-12-04T21:37:23.068Z,33.60
2018-12-04T21:39:57.559Z,25.10
2018-12-04T21:42:32.227Z,15.10
2018-12-04T21:45:06.814Z,22.70
2018-12-04T21:47:41.414Z,27.90
2018-12-04T21:50:10.690Z,24.40
2018-12-04T21:52:40.030Z,25.00
2018-12-04T21:55:09.350Z,21.80
2018-12-04T21:57:38.637Z,25.00
2018-12-04T22:00:08.142Z,32.70
2018-12-04T22:02:37.444Z,37.20
2018-12-04T22:05:07.068Z,41.30
2018-12-04T22:07:36.302Z,28.20
2018-12-04T22:10:06.093Z,23.30
2018-12-04T22:12:35.454Z,27.00
2018-12-04T22:15:05.338Z,28.70
2018-12-04T22:17:34.603Z,35.60
2018-12-04T22:20:05.894Z,30.60
2018-12-04T22:22:35.232Z,30.00
2018-12-04T22:25:04.685Z,24.70
2018-12-04T22:27:33.978Z,19.90
2018-12-04T22:30:03.409Z,18.50
2018-12-04T22:32:32.665Z,24.90
2018-12-04T22:35:02.106Z,26.60
2018-12-04T22:37:31.409Z,30.20
2018-12-04T22:40:00.711Z,35.00
2018-12-04T22:42:29.992Z,40.70
2018-12-04T22:45:04.539Z,39.50
2018-12-04T22:47:33.813Z,37.50
2018-12-04T22:50:03.217Z,34.60
2018-12-04T22:52:33.361Z,34.90
2018-12-04T22:55:02.637Z,40.10
2018-12-04T22:57:31.956Z,37.50
2018-12-04T23:00:01.198Z,36.10
2018-12-04T23:02:30.497Z,25.00
2018-12-04T23:04:59.743Z,20.50
2018-12-04T23:07:29.061Z,19.70
2018-12-04T23:09:58.317Z,24.90
2018-12-04T23:12:27.597Z,30.90
2018-12-04T23:14:56.857Z,42.30
2018-12-04T23:17:26.136Z,35.40
2018-12-04T23:19:55.438Z,29.20
2018-12-04T23:22:24.758Z,28.40
2018-12-04T23:24:54.027Z,24.90
2018-12-04T23:27:23.286Z,24.80
2018-12-04T23:29:52.682Z,35.50
2018-12-04T23:32:21.954Z,35.70
2018-12-04T23:34:51.217Z,23.70
2018-12-04T23:37:20.489Z,18.50
2018-12-04T23:39:49.768Z,23.20
2018-12-04T23:42:19.177Z,18.10
2018-12-04T23:44:48.487Z,11.00
2018-12-04T23:47:17.778Z,7.90
2018-12-04T23:49:47.187Z,15.20
2018-12-04T23:52:16.586Z,15.30
2018-12-04T23:54:45.882Z,15.20
2018-12-04T23:57:15.135Z,13.60
2018-12-04T23:59:44.405Z,18.50
